Time;durP1;ratioP1;P1;durP2;ratioP2;P2;SDS_P1;SDS_P2;PMS_P1;PMS_P2;Temp;Humidity;BMP_temperature;BMP_pressure;BME280_temperature;BME280_humidity;BME280_pressure;Samples;Min_cycle;Max_cycle;Signal;HPM_P1;HPM_P2
2022/09/27 00:00:41;;;;;;;2.97;0.40;;;11.10;99.90;;;;;;5051276;28;20035;-56
2022/09/27 00:03:10;;;;;;;2.97;0.45;;;11.20;99.90;;;;;;5050400;28;20108;-55
2022/09/27 00:05:36;;;;;;;3.25;0.47;;;11.10;99.90;;;;;;5049111;28;20024;-56
2022/09/27 00:08:02;;;;;;;3.58;0.40;;;11.10;99.90;;;;;;5049576;28;20033;-56
2022/09/27 00:10:27;;;;;;;2.92;0.47;;;11.10;99.90;;;;;;5050760;28;20044;-55
2022/09/27 00:12:54;;;;;;;3.97;0.50;;;11.10;99.90;;;;;;5049938;28;20059;-56
2022/09/27 00:15:20;;;;;;;6.32;1.05;;;11.10;99.90;;;;;;5050112;28;20027;-56
2022/09/27 00:17:45;;;;;;;3.47;0.40;;;11.10;99.90;;;;;;5035266;28;20391;-55
2022/09/27 00:20:11;;;;;;;3.65;0.38;;;11.10;99.90;;;;;;5049705;28;20025;-57
2022/09/27 00:22:37;;;;;;;2.20;0.50;;;11.00;99.90;;;;;;5058117;28;20032;-56
2022/09/27 00:25:06;;;;;;;1.30;0.40;;;11.00;99.90;;;;;;5049567;28;20029;-56
2022/09/27 00:27:32;;;;;;;2.95;0.50;;;11.00;99.90;;;;;;5055575;28;20025;-56
2022/09/27 00:29:57;;;;;;;4.82;0.60;;;11.00;99.90;;;;;;5051021;28;20036;-56
2022/09/27 00:32:23;;;;;;;5.28;0.75;;;11.00;99.90;;;;;;5049548;28;20032;-55
2022/09/27 00:34:48;;;;;;;3.05;0.50;;;10.90;99.90;;;;;;5050946;28;20044;-56
2022/09/27 00:37:14;;;;;;;2.35;0.38;;;10.90;99.90;;;;;;5046182;28;20030;-57
2022/09/27 00:39:39;;;;;;;3.50;0.73;;;10.90;99.90;;;;;;5067201;28;20032;-58
2022/09/27 00:42:08;;;;;;;2.42;0.40;;;10.90;99.90;;;;;;5050074;28;20037;-57
2022/09/27 00:44:37;;;;;;;2.88;0.40;;;10.90;99.90;;;;;;5050884;28;20506;-57
2022/09/27 00:47:09;;;;;;;2.78;0.55;;;10.90;99.90;;;;;;5049007;28;20044;-56
2022/09/27 00:49:45;;;;;;;2.78;0.40;;;10.90;99.90;;;;;;5050894;28;20473;-58
2022/09/27 00:52:20;;;;;;;2.83;0.35;;;10.90;99.90;;;;;;5050325;28;20051;-56
2022/09/27 00:54:49;;;;;;;2.85;0.40;;;10.90;99.90;;;;;;5048980;28;20356;-57
2022/09/27 00:57:16;;;;;;;2.73;0.47;;;10.90;99.90;;;;;;5050557;28;20029;-57
2022/09/27 00:59:48;;;;;;;2.08;0.40;;;10.90;99.90;;;;;;5047875;28;20303;-57
2022/09/27 01:02:14;;;;;;;4.00;1.38;;;10.90;99.90;;;;;;5049119;28;20017;-57
2022/09/27 01:04:41;;;;;;;1.73;0.30;;;10.90;99.90;;;;;;5048904;28;20017;-57
2022/09/27 01:07:06;;;;;;;1.65;0.40;;;10.90;99.90;;;;;;5047053;28;20051;-57
2022/09/27 01:09:33;;;;;;;1.58;0.30;;;10.90;99.90;;;;;;5050411;28;20028;-57
2022/09/27 01:12:22;;;;;;;2.78;0.60;;;10.90;99.90;;;;;;5049831;28;20075;-57
2022/09/27 01:14:56;;;;;;;2.07;0.43;;;10.90;99.90;;;;;;5050197;28;20035;-57
2022/09/27 01:17:31;;;;;;;3.05;0.50;;;10.80;99.90;;;;;;5048622;28;20021;-56
2022/09/27 01:20:18;;;;;;;3.13;0.30;;;10.90;99.90;;;;;;5048496;28;20048;-57
2022/09/27 01:22:54;;;;;;;1.95;0.52;;;10.90;99.90;;;;;;5049227;28;20092;-57
2022/09/27 01:26:05;;;;;;;2.00;0.35;;;10.80;99.90;;;;;;5059438;28;20025;-57
2022/09/27 01:29:07;;;;;;;2.80;0.45;;;10.80;99.90;;;;;;5047646;28;20028;-57
2022/09/27 01:31:55;;;;;;;4.72;0.40;;;10.80;99.90;;;;;;5048404;28;20104;-57
2022/09/27 01:34:42;;;;;;;3.80;0.40;;;10.80;99.90;;;;;;5048309;28;20027;-57
2022/09/27 01:37:34;;;;;;;2.30;0.30;;;10.70;99.90;;;;;;5061974;28;20021;-57
2022/09/27 01:39:59;;;;;;;4.50;0.50;;;10.80;99.90;;;;;;5049699;28;20035;-57
2022/09/27 01:42:39;;;;;;;1.45;0.40;;;10.80;99.90;;;;;;5049086;28;20413;-57
2022/09/27 01:45:08;;;;;;;4.68;0.43;;;10.80;99.90;;;;;;5049402;28;20017;-57
2022/09/27 01:47:44;;;;;;;2.73;0.40;;;10.80;99.90;;;;;;5049199;28;20122;-55
2022/09/27 01:50:17;;;;;;;1.75;0.30;;;10.80;99.90;;;;;;5049435;28;20506;-56
2022/09/27 01:52:49;;;;;;;2.33;0.40;;;10.70;99.90;;;;;;5048464;28;20032;-57
2022/09/27 01:55:18;;;;;;;3.17;0.93;;;10.80;99.90;;;;;;5046124;28;20044;-58
2022/09/27 01:57:51;;;;;;;1.90;0.33;;;10.70;99.90;;;;;;5047895;28;20032;-57
2022/09/27 02:00:16;;;;;;;0.38;0.20;;;10.70;99.90;;;;;;5048732;28;20092;-57
2022/09/27 02:02:51;;;;;;;1.20;0.30;;;10.80;99.90;;;;;;5035829;28;20167;-57
2022/09/27 02:05:18;;;;;;;0.65;0.25;;;10.80;99.90;;;;;;5049045;28;20045;-57
2022/09/27 02:07:58;;;;;;;1.15;0.30;;;10.70;99.90;;;;;;5045686;28;20029;-57
2022/09/27 02:10:30;;;;;;;0.68;0.30;;;10.70;99.90;;;;;;5047336;28;20394;-56
2022/09/27 02:13:20;;;;;;;2.15;0.20;;;10.70;99.90;;;;;;5047654;28;20021;-55
2022/09/27 02:16:04;;;;;;;0.77;0.20;;;10.80;99.90;;;;;;5032523;28;20091;-57
2022/09/27 02:18:46;;;;;;;2.28;0.30;;;10.70;99.90;;;;;;5047576;28;20025;-54
2022/09/27 02:21:16;;;;;;;0.75;0.35;;;10.80;99.90;;;;;;5061888;28;20113;-57
2022/09/27 02:23:52;;;;;;;;;;;10.70;99.90;;;;;;5047735;28;20135;-57
2022/09/27 02:26:29;;;;;;;1.42;0.68;;;10.70;99.90;;;;;;5062540;28;19909;-57
2022/09/27 02:29:18;;;;;;;2.05;0.40;;;10.60;99.90;;;;;;5047116;28;20396;-57
2022/09/27 02:31:43;;;;;;;1.33;0.30;;;10.70;99.90;;;;;;5047222;28;20048;-57
2022/09/27 02:34:18;;;;;;;0.68;0.30;;;10.60;99.90;;;;;;5047492;28;20029;-57
2022/09/27 02:36:44;;;;;;;2.13;0.30;;;10.70;99.90;;;;;;5046951;28;20147;-57
2022/09/27 02:39:10;;;;;;;1.15;0.25;;;10.60;99.90;;;;;;5048384;28;20100;-57
2022/09/27 02:41:36;;;;;;;2.65;0.30;;;10.60;99.90;;;;;;5033574;28;20045;-57
2022/09/27 02:44:07;;;;;;;2.22;0.30;;;10.60;99.90;;;;;;5031632;28;20496;-57
2022/09/27 02:47:18;;;;;;;2.17;0.38;;;10.60;99.90;;;;;;5046826;28;20049;-56
2022/09/27 02:50:03;;;;;;;2.95;0.35;;;10.60;99.90;;;;;;5029415;28;20048;-57
2022/09/27 02:52:31;;;;;;;2.25;0.40;;;10.50;99.90;;;;;;5044436;28;20030;-57
2022/09/27 02:55:05;;;;;;;2.90;0.30;;;10.40;99.90;;;;;;5049615;28;20100;-56
2022/09/27 02:57:46;;;;;;;1.60;0.43;;;10.40;99.90;;;;;;5037146;28;20028;-57
2022/09/27 03:00:18;;;;;;;5.70;0.47;;;10.40;99.90;;;;;;5027393;28;20503;-57
2022/09/27 03:03:08;;;;;;;2.53;0.50;;;10.30;99.90;;;;;;5029092;28;20034;-57
2022/09/27 03:05:42;;;;;;;0.77;0.30;;;10.30;99.90;;;;;;5031482;28;20036;-57
2022/09/27 03:08:09;;;;;;;3.97;0.50;;;10.30;99.90;;;;;;5035670;28;20021;-57
2022/09/27 03:10:35;;;;;;;2.38;0.40;;;10.30;99.90;;;;;;5044458;28;20630;-57
2022/09/27 03:13:01;;;;;;;2.40;0.50;;;10.30;99.90;;;;;;5035626;28;20033;-57
2022/09/27 03:15:26;;;;;;;1.45;0.65;;;10.30;99.90;;;;;;5039915;28;20377;-57
2022/09/27 03:17:52;;;;;;;4.80;0.60;;;10.30;99.90;;;;;;5047346;28;20448;-56
2022/09/27 03:20:18;;;;;;;5.00;0.85;;;10.30;99.90;;;;;;5047403;28;20017;-56
2022/09/27 03:22:44;;;;;;;3.38;0.50;;;10.30;99.90;;;;;;5035005;28;20026;-57
2022/09/27 03:25:10;;;;;;;2.90;0.40;;;10.30;99.90;;;;;;5034343;28;20017;-56
2022/09/27 03:27:36;;;;;;;1.88;0.40;;;10.20;99.90;;;;;;5034813;28;20029;-56
2022/09/27 03:30:01;;;;;;;2.70;0.40;;;10.20;99.90;;;;;;5047351;28;20031;-56
2022/09/27 03:32:27;;;;;;;0.85;0.30;;;10.20;99.90;;;;;;5047132;28;20080;-57
2022/09/27 03:34:54;;;;;;;3.50;0.90;;;10.20;99.90;;;;;;5036862;28;20032;-56
2022/09/27 03:37:20;;;;;;;2.80;0.60;;;10.20;99.90;;;;;;5047109;28;20033;-57
2022/09/27 03:39:46;;;;;;;2.20;0.50;;;10.10;99.90;;;;;;5033884;28;20079;-57
2022/09/27 03:42:11;;;;;;;1.65;0.52;;;10.10;99.90;;;;;;5033878;28;20407;-57
2022/09/27 03:44:37;;;;;;;2.55;0.65;;;10.10;99.90;;;;;;5036937;28;20029;-57
2022/09/27 03:47:02;;;;;;;5.65;0.93;;;10.10;99.90;;;;;;5046621;28;20071;-57
2022/09/27 03:49:28;;;;;;;4.35;0.70;;;10.10;99.90;;;;;;5032734;28;20029;-57
2022/09/27 03:51:54;;;;;;;3.38;0.60;;;10.10;99.90;;;;;;5036680;28;20112;-57
2022/09/27 03:54:20;;;;;;;3.13;0.70;;;10.00;99.90;;;;;;5048333;28;20131;-56
2022/09/27 03:56:46;;;;;;;3.63;0.50;;;10.00;99.90;;;;;;5035014;28;20422;-56
2022/09/27 03:59:11;;;;;;;5.00;0.50;;;10.00;99.90;;;;;;5047100;28;20590;-57
2022/09/27 04:01:37;;;;;;;6.45;0.82;;;9.90;99.90;;;;;;5035424;28;20014;-58
2022/09/27 04:04:03;;;;;;;4.38;0.80;;;9.90;99.90;;;;;;5034560;28;20017;-56
2022/09/27 04:06:29;;;;;;;3.10;0.60;;;9.90;99.90;;;;;;5046790;28;20385;-57
2022/09/27 04:08:55;;;;;;;4.63;0.82;;;9.90;99.90;;;;;;5036301;28;20032;-56
2022/09/27 04:11:22;;;;;;;3.47;0.63;;;9.90;99.90;;;;;;5046585;28;20021;-56
2022/09/27 04:13:48;;;;;;;5.72;0.93;;;9.90;99.90;;;;;;5034997;28;20476;-58
2022/09/27 04:16:15;;;;;;;4.97;0.75;;;9.90;99.90;;;;;;5036584;28;20056;-56
2022/09/27 04:18:41;;;;;;;8.07;0.85;;;9.90;99.90;;;;;;5037027;28;20108;-58
2022/09/27 04:21:07;;;;;;;5.80;0.60;;;9.90;99.90;;;;;;5032690;28;20131;-57
2022/09/27 04:23:32;;;;;;;6.43;0.60;;;9.90;99.90;;;;;;5036092;28;20017;-56
2022/09/27 04:25:58;;;;;;;3.13;0.40;;;10.00;99.90;;;;;;5046362;28;20363;-57
2022/09/27 04:28:24;;;;;;;5.25;0.60;;;9.90;99.90;;;;;;5057350;28;20059;-56
2022/09/27 04:30:49;;;;;;;1.95;0.60;;;9.90;99.90;;;;;;5036056;28;20064;-57
2022/09/27 04:33:15;;;;;;;3.03;0.50;;;10.00;99.90;;;;;;5033759;28;20033;-57
2022/09/27 04:38:26;;;;;;;4.07;0.60;;;10.00;99.90;;;;;;5035387;28;20052;-58
2022/09/27 04:40:51;;;;;;;2.70;0.30;;;10.00;99.90;;;;;;5046690;28;20456;-57
2022/09/27 04:43:17;;;;;;;5.40;0.47;;;10.00;99.90;;;;;;5047959;28;20025;-56
2022/09/27 04:45:43;;;;;;;2.75;0.43;;;10.00;99.90;;;;;;5038786;28;20028;-57
2022/09/27 04:48:09;;;;;;;2.65;0.30;;;10.00;99.90;;;;;;5031516;28;20029;-58
2022/09/27 04:50:34;;;;;;;2.25;0.30;;;9.90;99.90;;;;;;5033083;28;20037;-58
2022/09/27 04:53:00;;;;;;;3.65;0.98;;;9.90;99.90;;;;;;5046129;28;20036;-56
2022/09/27 04:55:26;;;;;;;1.85;0.30;;;9.90;99.90;;;;;;5045276;28;20029;-56
2022/09/27 04:57:52;;;;;;;4.25;0.50;;;9.90;99.90;;;;;;5036500;28;20366;-57
2022/09/27 05:00:18;;;;;;;1.90;0.20;;;9.80;99.90;;;;;;5033818;28;20021;-57
2022/09/27 05:02:45;;;;;;;1.00;0.35;;;9.80;99.90;;;;;;5045527;28;20032;-56
2022/09/27 05:05:10;;;;;;;2.45;0.45;;;9.80;99.90;;;;;;5031025;28;20029;-56
2022/09/27 05:07:37;;;;;;;2.13;0.60;;;9.80;99.90;;;;;;5036836;28;20022;-57
2022/09/27 05:10:03;;;;;;;3.80;0.45;;;9.80;99.90;;;;;;5033416;28;20022;-57
2022/09/27 05:12:29;;;;;;;1.80;0.30;;;9.80;99.90;;;;;;5034855;28;20096;-55
2022/09/27 05:14:54;;;;;;;4.13;0.60;;;9.80;99.90;;;;;;5045479;28;20181;-58
2022/09/27 05:17:21;;;;;;;1.85;0.40;;;9.80;99.90;;;;;;5045940;28;20041;-58
2022/09/27 05:19:47;;;;;;;2.72;0.40;;;9.80;99.90;;;;;;5044491;28;20044;-57
2022/09/27 05:22:12;;;;;;;3.67;0.55;;;9.80;99.90;;;;;;5050978;28;20044;-56
2022/09/27 05:24:38;;;;;;;2.63;0.50;;;9.70;99.90;;;;;;5053505;28;20110;-57
2022/09/27 05:27:07;;;;;;;2.75;0.43;;;9.70;99.90;;;;;;5051719;28;20473;-57
2022/09/27 05:29:33;;;;;;;2.63;0.40;;;9.70;99.90;;;;;;5049229;28;20060;-57
2022/09/27 05:31:58;;;;;;;2.55;0.40;;;9.70;99.90;;;;;;5048878;28;20022;-57
2022/09/27 05:34:24;;;;;;;3.13;0.85;;;9.70;99.90;;;;;;5044180;28;20029;-57
2022/09/27 05:36:49;;;;;;;3.35;0.40;;;9.70;99.90;;;;;;5052877;28;20033;-57
2022/09/27 05:39:16;;;;;;;0.88;0.40;;;9.70;99.90;;;;;;5053419;28;20096;-57
2022/09/27 05:41:42;;;;;;;2.47;0.40;;;9.70;99.90;;;;;;5051419;28;20510;-57
2022/09/27 05:44:08;;;;;;;2.88;0.40;;;9.70;99.90;;;;;;5052790;28;20032;-56
2022/09/27 05:46:33;;;;;;;1.95;0.40;;;9.60;99.90;;;;;;5053123;28;20033;-57
2022/09/27 05:48:59;;;;;;;4.25;0.40;;;9.70;99.90;;;;;;5051630;28;20398;-55
2022/09/27 05:51:25;;;;;;;1.45;0.40;;;9.60;99.90;;;;;;5045935;28;20028;-57
2022/09/27 05:53:50;;;;;;;3.22;0.30;;;9.60;99.90;;;;;;5062408;28;20082;-57
2022/09/27 05:56:19;;;;;;;2.78;0.40;;;9.60;99.90;;;;;;5052533;28;20096;-57
2022/09/27 05:58:44;;;;;;;1.73;0.30;;;9.60;99.90;;;;;;5053276;28;20029;-57
2022/09/27 06:01:10;;;;;;;1.38;0.30;;;9.60;99.90;;;;;;5047408;28;20478;-56
2022/09/27 06:03:36;;;;;;;1.95;0.30;;;9.60;99.90;;;;;;5047555;28;20036;-57
2022/09/27 06:06:05;;;;;;;1.75;0.30;;;9.60;99.90;;;;;;5050059;28;20050;-57
2022/09/27 06:08:36;;;;;;;1.20;0.20;;;9.60;99.90;;;;;;5049159;28;20087;-57
2022/09/27 06:11:04;;;;;;;1.83;0.22;;;9.70;99.90;;;;;;5042576;28;20021;-57
2022/09/27 06:13:30;;;;;;;3.25;0.40;;;9.70;99.90;;;;;;5053154;28;20040;-57
2022/09/27 06:15:55;;;;;;;1.25;0.38;;;9.70;99.90;;;;;;5052856;28;20029;-57
2022/09/27 06:18:21;;;;;;;2.35;0.32;;;9.70;99.90;;;;;;5051069;28;20024;-56
2022/09/27 06:20:46;;;;;;;3.50;0.32;;;9.70;99.90;;;;;;5051524;28;20036;-57
2022/09/27 06:23:23;;;;;;;2.17;0.20;;;9.70;99.90;;;;;;5047784;28;20012;-57
2022/09/27 06:25:50;;;;;;;3.45;0.40;;;9.80;99.90;;;;;;5049934;28;20032;-56
2022/09/27 06:28:16;;;;;;;1.02;0.30;;;9.80;99.90;;;;;;5044393;28;20049;-56
2022/09/27 06:30:47;;;;;;;1.48;0.20;;;9.80;99.90;;;;;;5044307;28;20025;-57
2022/09/27 06:33:16;;;;;;;1.10;0.40;;;9.80;99.90;;;;;;5052315;28;20031;-56
2022/09/27 06:35:44;;;;;;;2.03;0.38;;;9.80;99.90;;;;;;5050856;28;20032;-57
2022/09/27 06:38:11;;;;;;;4.32;0.30;;;9.90;99.90;;;;;;5043523;28;20017;-57
2022/09/27 06:40:37;;;;;;;2.03;0.52;;;9.90;99.90;;;;;;5045143;28;20029;-57
2022/09/27 06:43:08;;;;;;;1.80;0.40;;;9.90;99.90;;;;;;5050840;28;20032;-57
2022/09/27 06:45:34;;;;;;;3.13;0.38;;;10.00;99.90;;;;;;5043045;28;20028;-57
2022/09/27 06:48:01;;;;;;;2.75;0.40;;;10.00;99.90;;;;;;5063047;28;20484;-57
2022/09/27 06:50:36;;;;;;;4.00;0.38;;;10.10;99.90;;;;;;5049518;28;20025;-58
2022/09/27 06:53:04;;;;;;;3.33;0.30;;;10.20;99.90;;;;;;5047116;28;20021;-57
2022/09/27 06:55:30;;;;;;;2.83;0.45;;;10.20;99.90;;;;;;5049003;28;20436;-56
2022/09/27 07:00:46;;;;;;;3.40;0.50;;;10.30;99.90;;;;;;5048848;28;20036;-57
2022/09/27 07:03:13;;;;;;;5.90;1.00;;;10.40;99.90;;;;;;5048718;28;20484;-57
2022/09/27 07:05:41;;;;;;;2.10;0.50;;;10.40;99.90;;;;;;5048649;28;20053;-55
2022/09/27 07:08:13;;;;;;;3.40;0.40;;;10.40;99.90;;;;;;5050554;28;20039;-57
2022/09/27 07:10:39;;;;;;;1.67;0.35;;;10.40;99.90;;;;;;5049501;28;20537;-56
2022/09/27 07:13:10;;;;;;;2.75;0.40;;;10.40;99.90;;;;;;5049405;28;20021;-57
2022/09/27 07:15:40;;;;;;;2.75;0.30;;;10.50;99.90;;;;;;5048926;28;20056;-57
2022/09/27 07:18:07;;;;;;;1.45;0.30;;;10.50;99.90;;;;;;5046250;28;20462;-57
2022/09/27 07:20:36;;;;;;;2.67;0.40;;;10.50;99.90;;;;;;5049240;28;20021;-57
2022/09/27 07:23:02;;;;;;;2.35;0.40;;;10.40;99.90;;;;;;5063830;28;20021;-58
2022/09/27 07:25:28;;;;;;;3.55;0.50;;;10.40;99.90;;;;;;5048345;28;20047;-57
2022/09/27 07:27:53;;;;;;;3.00;0.57;;;10.40;99.90;;;;;;5046708;28;20112;-56
2022/09/27 07:30:20;;;;;;;1.13;0.40;;;10.40;99.90;;;;;;5047679;28;20021;-55
2022/09/27 07:32:46;;;;;;;1.52;0.40;;;10.50;99.90;;;;;;5042470;28;20029;-56
2022/09/27 07:35:14;;;;;;;2.53;0.45;;;10.50;99.90;;;;;;5047541;28;20014;-56
2022/09/27 07:37:41;;;;;;;0.95;0.40;;;10.50;99.90;;;;;;5041630;28;20028;-56
2022/09/27 07:40:08;;;;;;;0.68;0.30;;;10.50;99.90;;;;;;5037477;28;20032;-57
2022/09/27 07:42:39;;;;;;;1.10;0.40;;;10.50;99.90;;;;;;5037849;28;20046;-57
2022/09/27 07:45:07;;;;;;;1.75;0.40;;;10.50;99.90;;;;;;5050420;28;20013;-57
2022/09/27 07:47:32;;;;;;;1.23;0.30;;;10.60;99.90;;;;;;5053015;28;20036;-57
2022/09/27 07:49:58;;;;;;;1.15;0.30;;;10.60;99.90;;;;;;5050083;28;20397;-57
2022/09/27 07:52:23;;;;;;;1.33;0.30;;;10.60;99.90;;;;;;5042477;28;20030;-56
2022/09/27 07:54:49;;;;;;;3.22;0.40;;;10.60;99.90;;;;;;5049670;28;20022;-57
2022/09/27 07:57:15;;;;;;;4.93;0.50;;;10.60;99.90;;;;;;5051536;28;20492;-57
2022/09/27 07:59:40;;;;;;;1.65;0.30;;;10.60;99.90;;;;;;5039943;28;20444;-56
2022/09/27 08:02:13;;;;;;;0.88;0.40;;;10.60;99.90;;;;;;5050800;28;20048;-57
2022/09/27 08:04:39;;;;;;;2.28;0.40;;;10.60;99.90;;;;;;5053851;28;20534;-56
2022/09/27 08:07:05;;;;;;;1.23;0.30;;;10.50;99.90;;;;;;5053750;28;20033;-56
2022/09/27 08:09:30;;;;;;;1.17;0.40;;;10.60;99.90;;;;;;5050346;28;20511;-57
2022/09/27 08:11:59;;;;;;;2.28;0.40;;;10.60;99.90;;;;;;5053081;28;20115;-57
2022/09/27 08:14:24;;;;;;;3.63;0.60;;;10.50;99.90;;;;;;5054033;28;20072;-56
2022/09/27 08:16:50;;;;;;;2.50;1.08;;;10.60;99.90;;;;;;5052234;28;20476;-57
2022/09/27 08:19:16;;;;;;;4.53;0.80;;;10.60;99.90;;;;;;5053167;28;20492;-56
2022/09/27 08:21:42;;;;;;;1.50;0.43;;;10.60;99.90;;;;;;5053741;28;20044;-56
2022/09/27 08:24:08;;;;;;;1.70;0.40;;;10.60;99.90;;;;;;5053359;28;20481;-57
2022/09/27 08:26:33;;;;;;;2.90;0.55;;;10.60;99.90;;;;;;5050467;28;20033;-57
2022/09/27 08:28:59;;;;;;;2.05;0.70;;;10.70;99.90;;;;;;5050259;28;20040;-57
2022/09/27 08:31:25;;;;;;;1.80;0.50;;;10.70;99.90;;;;;;5049784;28;20025;-57
2022/09/27 08:33:51;;;;;;;2.13;0.68;;;10.70;99.90;;;;;;5050866;28;20052;-57
2022/09/27 08:36:17;;;;;;;3.42;0.98;;;10.70;99.90;;;;;;5051056;28;20017;-57
2022/09/27 08:38:42;;;;;;;3.13;0.60;;;10.70;99.90;;;;;;5051610;28;20021;-57
2022/09/27 08:41:20;;;;;;;1.05;0.70;;;10.80;99.90;;;;;;5057167;28;20123;-57
2022/09/27 08:44:23;;;;;;;2.47;0.82;;;10.80;99.90;;;;;;5055410;28;20032;-57
2022/09/27 08:47:07;;;;;;;6.75;1.20;;;10.90;99.90;;;;;;5049041;28;20059;-57
2022/09/27 08:49:49;;;;;;;4.45;1.42;;;10.90;99.90;;;;;;5069713;28;20024;-58
2022/09/27 08:52:22;;;;;;;2.17;1.40;;;10.90;99.90;;;;;;5051598;28;20028;-56
2022/09/27 08:54:49;;;;;;;3.75;1.55;;;10.90;99.90;;;;;;5050675;28;20389;-57
2022/09/27 08:57:16;;;;;;;4.55;1.48;;;10.80;99.90;;;;;;5046404;28;20029;-58
2022/09/27 09:00:05;;;;;;;3.05;1.52;;;10.90;99.90;;;;;;5051959;28;20025;-57
2022/09/27 09:02:31;;;;;;;3.92;1.95;;;10.90;99.90;;;;;;5043928;28;20088;-56
2022/09/27 09:05:02;;;;;;;2.72;2.00;;;10.90;99.90;;;;;;5045215;28;20029;-57
2022/09/27 09:07:53;;;;;;;4.15;2.28;;;10.90;99.90;;;;;;5048577;28;20044;-56
2022/09/27 09:13:31;;;;;;;2.55;1.73;;;10.90;99.90;;;;;;5045830;28;20116;-58
2022/09/27 09:16:14;;;;;;;4.47;2.30;;;11.00;99.90;;;;;;5049010;28;20040;-57
2022/09/27 09:18:43;;;;;;;3.10;2.10;;;11.00;99.90;;;;;;5043031;28;20411;-57
2022/09/27 09:21:37;;;;;;;3.30;2.35;;;10.90;99.90;;;;;;5044366;28;20116;-57
2022/09/27 09:24:16;;;;;;;6.75;2.47;;;11.00;99.90;;;;;;5033903;28;20026;-57
2022/09/27 09:27:03;;;;;;;4.72;2.55;;;10.90;99.90;;;;;;5047136;28;20122;-56
2022/09/27 09:30:11;;;;;;;2.60;2.15;;;10.90;99.90;;;;;;5053373;28;20068;-57
2022/09/27 09:33:07;;;;;;;3.63;2.20;;;11.00;99.90;;;;;;5052009;28;20017;-56
2022/09/27 09:35:44;;;;;;;3.10;1.80;;;11.00;99.90;;;;;;5053539;28;20033;-57
2022/09/27 09:39:09;;;;;;;4.38;1.58;;;11.10;99.90;;;;;;5054621;28;20442;-57
2022/09/27 09:42:00;;;;;;;3.00;1.73;;;11.10;99.90;;;;;;5003714;28;20443;-57
2022/09/27 09:44:50;;;;;;;2.78;1.45;;;11.10;99.90;;;;;;5051566;28;20028;-56
2022/09/27 09:47:42;;;;;;;3.78;1.60;;;11.10;99.90;;;;;;5052150;28;20021;-57
2022/09/27 09:50:21;;;;;;;1.77;1.45;;;11.10;99.90;;;;;;5050770;28;20119;-57
2022/09/27 09:52:55;;;;;;;5.53;2.20;;;11.10;99.90;;;;;;5045285;28;20029;-57
2022/09/27 09:55:27;;;;;;;3.72;1.30;;;11.10;99.90;;;;;;5045461;28;20166;-57
2022/09/27 09:58:17;;;;;;;1.83;1.30;;;11.10;99.90;;;;;;5044892;28;20047;-56
2022/09/27 10:00:46;;;;;;;2.88;1.20;;;11.20;99.90;;;;;;5044205;28;20028;-56
2022/09/27 10:03:13;;;;;;;2.78;1.35;;;11.20;99.90;;;;;;5040603;28;20481;-57
2022/09/27 10:05:48;;;;;;;3.55;1.15;;;11.30;99.90;;;;;;5055875;28;20159;-57
2022/09/27 10:08:23;;;;;;;4.32;1.20;;;11.20;99.90;;;;;;5052014;28;20067;-57
2022/09/27 10:10:49;;;;;;;2.95;1.00;;;11.30;99.90;;;;;;5048969;28;20523;-57
2022/09/27 10:13:19;;;;;;;3.25;1.25;;;11.20;99.90;;;;;;5044386;28;20440;-57
2022/09/27 10:15:58;;;;;;;2.35;0.85;;;11.30;99.90;;;;;;5048968;28;20104;-56
2022/09/27 10:18:25;;;;;;;3.13;0.80;;;11.30;99.90;;;;;;5049547;28;20029;-57
2022/09/27 10:20:56;;;;;;;3.17;0.93;;;11.30;99.90;;;;;;5050890;28;20070;-57
2022/09/27 10:23:24;;;;;;;2.78;0.60;;;11.40;99.90;;;;;;5051011;28;20025;-57
2022/09/27 10:25:56;;;;;;;1.92;0.70;;;11.40;99.90;;;;;;5052981;28;20025;-57
2022/09/27 10:28:26;;;;;;;1.83;0.70;;;11.40;99.90;;;;;;5051274;28;20079;-57
2022/09/27 10:30:54;;;;;;;;;;;11.50;99.90;;;;;;5050939;28;20033;-57
2022/09/27 10:33:22;;;;;;;2.33;0.70;;;11.50;99.90;;;;;;5046539;28;19905;-57
2022/09/27 10:35:49;;;;;;;3.15;1.00;;;11.50;99.90;;;;;;5048775;28;20501;-57
2022/09/27 10:38:19;;;;;;;4.15;0.75;;;11.50;99.90;;;;;;5050456;28;20020;-58
2022/09/27 10:40:48;;;;;;;2.95;0.80;;;11.60;99.90;;;;;;5049896;28;20037;-57
2022/09/27 10:43:34;;;;;;;2.28;0.73;;;11.60;99.90;;;;;;5051193;28;20132;-57
2022/09/27 10:46:15;;;;;;;1.58;0.60;;;11.70;99.90;;;;;;5052046;28;20104;-57
2022/09/27 10:48:41;;;;;;;2.15;0.63;;;11.70;99.90;;;;;;5047426;28;20040;-57
2022/09/27 10:51:19;;;;;;;2.03;0.60;;;11.70;99.90;;;;;;5051142;28;20060;-57
2022/09/27 10:53:46;;;;;;;2.00;0.50;;;11.80;99.90;;;;;;5052101;28;20027;-57
2022/09/27 10:56:25;;;;;;;2.17;0.60;;;11.90;99.90;;;;;;5046842;28;20051;-55
2022/09/27 10:58:51;;;;;;;1.85;0.70;;;11.90;99.90;;;;;;5051443;28;20082;-57
2022/09/27 11:01:17;;;;;;;1.25;0.40;;;12.00;99.90;;;;;;5050609;28;20024;-54
2022/09/27 11:03:49;;;;;;;2.42;0.50;;;12.10;99.90;;;;;;5051787;28;20530;-57
2022/09/27 11:06:21;;;;;;;2.35;0.80;;;12.10;99.90;;;;;;5049024;28;20025;-56
2022/09/27 11:08:49;;;;;;;0.82;0.50;;;12.10;99.90;;;;;;5050644;28;20033;-54
2022/09/27 11:11:18;;;;;;;1.35;0.50;;;12.10;99.90;;;;;;5050287;28;20024;-58
2022/09/27 11:14:24;;;;;;;1.77;0.60;;;12.20;99.90;;;;;;5050541;28;20473;-56
2022/09/27 11:17:03;;;;;;;1.90;0.50;;;12.20;99.90;;;;;;5049995;28;20047;-56
2022/09/27 11:19:47;;;;;;;1.20;0.50;;;12.20;99.90;;;;;;5050624;28;20101;-58
2022/09/27 11:22:25;;;;;;;1.60;0.70;;;12.40;99.90;;;;;;5060844;28;20032;-58
2022/09/27 11:25:13;;;;;;;0.52;0.40;;;12.50;99.90;;;;;;5046201;28;20052;-57
2022/09/27 11:28:11;;;;;;;2.45;0.88;;;12.50;99.90;;;;;;5036792;28;20030;-57
2022/09/27 11:30:52;;;;;;;0.85;0.40;;;12.40;99.90;;;;;;5047756;28;20051;-58
2022/09/27 11:33:52;;;;;;;4.13;0.43;;;12.40;99.90;;;;;;5055094;28;20025;-56
2022/09/27 11:36:26;;;;;;;2.40;0.40;;;12.50;99.90;;;;;;5052380;28;20021;-57
2022/09/27 11:39:04;;;;;;;2.38;0.65;;;12.40;99.90;;;;;;5048057;28;20021;-57
2022/09/27 11:41:58;;;;;;;2.28;0.40;;;12.40;99.90;;;;;;5052637;28;20383;-57
2022/09/27 11:44:46;;;;;;;1.77;0.30;;;12.50;99.90;;;;;;5052861;28;20037;-57
2022/09/27 11:47:32;;;;;;;1.92;1.13;;;12.40;99.90;;;;;;5051146;28;20032;-57
2022/09/27 11:50:24;;;;;;;2.10;0.30;;;12.40;99.90;;;;;;5053129;28;20576;-58
2022/09/27 11:53:04;;;;;;;1.48;0.30;;;12.40;99.90;;;;;;5051930;28;20017;-57
2022/09/27 11:55:56;;;;;;;1.52;0.20;;;12.20;99.90;;;;;;5047449;28;20051;-55
2022/09/27 11:58:43;;;;;;;0.88;0.20;;;12.10;99.90;;;;;;5045908;28;20108;-57
2022/09/27 12:01:32;;;;;;;0.40;0.13;;;12.00;99.90;;;;;;5052417;28;20040;-57
2022/09/27 12:04:31;;;;;;;0.98;0.20;;;12.00;99.90;;;;;;5068701;28;20071;-57
2022/09/27 12:07:14;;;;;;;0.68;0.20;;;12.10;99.90;;;;;;5060422;28;20036;-57
2022/09/27 12:09:45;;;;;;;0.35;0.20;;;12.00;99.90;;;;;;5034159;28;20033;-57
2022/09/27 12:12:44;;;;;;;1.70;0.70;;;12.00;99.90;;;;;;5049138;28;20055;-57
2022/09/27 12:15:15;;;;;;;0.43;0.20;;;11.90;99.90;;;;;;5029167;28;20373;-57
2022/09/27 12:17:45;;;;;;;2.25;0.30;;;11.90;99.90;;;;;;5044577;28;20069;-57
2022/09/27 12:20:20;;;;;;;0.77;0.20;;;11.80;99.90;;;;;;5053268;28;20021;-57
2022/09/27 12:23:16;;;;;;;1.30;0.30;;;11.90;99.90;;;;;;5045485;28;20504;-58
2022/09/27 12:25:45;;;;;;;0.60;0.20;;;11.90;99.90;;;;;;5036357;28;20064;-57
2022/09/27 12:28:25;;;;;;;1.60;0.30;;;11.80;99.90;;;;;;5049311;28;20036;-57
2022/09/27 12:31:01;;;;;;;0.35;0.20;;;11.90;99.90;;;;;;5055051;28;20037;-57
2022/09/27 12:33:38;;;;;;;0.55;0.20;;;11.90;99.90;;;;;;5037999;28;20024;-57
2022/09/27 12:36:08;;;;;;;1.08;0.15;;;11.90;99.90;;;;;;5047999;28;20067;-53
2022/09/27 12:38:42;;;;;;;0.13;0.10;;;11.90;99.90;;;;;;5052042;28;20074;-57
2022/09/27 12:41:11;;;;;;;1.23;0.17;;;11.80;99.90;;;;;;5051935;28;20043;-57
2022/09/27 12:43:40;;;;;;;0.70;0.25;;;11.80;99.90;;;;;;5062020;28;20028;-56
2022/09/27 12:46:22;;;;;;;0.80;0.15;;;11.70;99.90;;;;;;5052241;28;20392;-57
2022/09/27 12:49:15;;;;;;;0.45;0.10;;;11.70;99.90;;;;;;5051999;28;20481;-57
2022/09/27 12:51:47;;;;;;;0.50;0.10;;;11.70;99.90;;;;;;5051659;28;20025;-57
2022/09/27 12:54:49;;;;;;;2.78;0.22;;;11.70;99.90;;;;;;5039299;28;20335;-58
2022/09/27 12:57:35;;;;;;;0.52;0.10;;;11.70;99.90;;;;;;5047980;28;20109;-57
2022/09/27 13:00:21;;;;;;;0.47;0.10;;;11.70;99.90;;;;;;5035275;28;20017;-57
2022/09/27 13:03:13;;;;;;;0.50;0.15;;;11.80;99.90;;;;;;5052093;28;20017;-58
2022/09/27 13:06:13;;;;;;;0.10;0.10;;;11.80;99.90;;;;;;5052764;28;20037;-58
2022/09/27 13:09:00;;;;;;;0.10;0.10;;;11.90;99.90;;;;;;5053812;28;20536;-57
2022/09/27 13:12:00;;;;;;;0.25;0.10;;;11.90;99.90;;;;;;5053034;28;20032;-58
2022/09/27 13:14:32;;;;;;;0.32;0.10;;;12.00;99.90;;;;;;5049961;28;20033;-57
2022/09/27 13:16:58;;;;;;;0.20;0.10;;;12.00;99.90;;;;;;5050488;28;20107;-58
2022/09/27 13:19:38;;;;;;;0.30;0.10;;;12.20;99.90;;;;;;5049195;28;20056;-57
2022/09/27 13:22:09;;;;;;;0.17;0.10;;;12.40;99.90;;;;;;5050774;28;20465;-57
2022/09/27 13:24:39;;;;;;;0.43;0.10;;;12.40;99.90;;;;;;5052218;28;20032;-58
2022/09/27 13:27:37;;;;;;;;;;;12.50;99.90;;;;;;5051255;28;20032;-57